USS Emory S Land — NEXS — position and weather

sailwx.info

Track history (hours):
 
Tides and Currents Weather Stations Pressure Air Temp Water Temp Dewpoint Dewpoint Depression Visibility Wind Speed Wind Dir Waves Ship Positions

USS Emory S Land

Last reported at 2018-Feb-14 16:42 UTC. Time now 2018-Feb-23 14:54 UTC.
Position N 32°43' W 117°13'.
Warning: this ship's position is 8 days out of date.

Length 180 m; draft 7.3 m.

Type: Military. MMSI: 338808000.

AWS

Date/timePositionNaut miles runAvg speedWind from/ knotsBaromVisibWave heightAir tempDewpointWater temp
2018-Feb-14 16:42N 32°43' W 117°13'2 7.9
2018-Feb-14 16:27N 32°41' W 117°14'4 9.4
2018-Feb-14 16:00N 32°37' W 117°13'20 1.0
2018-Feb-13 19:44N 32°36' W 117°37'2 8.2
2018-Feb-13 19:30N 32°36' W 117°35'1613.6
2018-Feb-13 18:20N 32°34' W 117°16'9 3.1
2018-Feb-13 15:23N 32°41' W 117°08'0 0.9
2018-Feb-13 14:57N 32°40' W 117°07'0 0.1
2018-Feb-13 14:27N 32°40' W 117°07'0 0.1
2018-Feb-13 14:00N 32°40' W 117°07'  
Track history (hours):
 
Tides and Currents Weather Stations Pressure Air Temp Water Temp Dewpoint Dewpoint Depression Visibility Wind Speed Wind Dir Waves Ship Positions

USS Emory S Land

Last reported at 2018-Feb-14 16:42 UTC. Time now 2018-Feb-23 14:54 UTC.
Position N 32°43' W 117°13'.
Warning: this ship's position is 8 days out of date.

Length 180 m; draft 7.3 m.

Type: Military. MMSI: 338808000.

AWS

Date/timePositionNaut miles runAvg speedWind from/ knotsBaromVisibWave heightAir tempDewpointWater temp
2018-Feb-14 16:42N 32°43' W 117°13'2 7.9
2018-Feb-14 16:27N 32°41' W 117°14'4 9.4
2018-Feb-14 16:00N 32°37' W 117°13'20 1.0
2018-Feb-13 19:44N 32°36' W 117°37'2 8.2
2018-Feb-13 19:30N 32°36' W 117°35'1613.6
2018-Feb-13 18:20N 32°34' W 117°16'9 3.1
2018-Feb-13 15:23N 32°41' W 117°08'0 0.9
2018-Feb-13 14:57N 32°40' W 117°07'0 0.1
2018-Feb-13 14:27N 32°40' W 117°07'0 0.1
2018-Feb-13 14:00N 32°40' W 117°07'  

Dump ship's entire track history